createdAt,value
2023-03-19T00:01:40.565Z,6.07
2023-03-19T00:04:42.591Z,5.53
2023-03-19T00:07:44.786Z,7.18
2023-03-19T00:10:46.704Z,8.13
2023-03-19T00:13:48.533Z,7.22
2023-03-19T00:16:51.004Z,4.80
2023-03-19T00:19:52.866Z,4.60
2023-03-19T00:22:54.803Z,5.40
2023-03-19T00:25:56.733Z,5.75
2023-03-19T00:28:59.261Z,5.78
2023-03-19T00:32:01.318Z,5.82
2023-03-19T00:35:06.301Z,5.00
2023-03-19T00:38:09.003Z,6.15
2023-03-19T00:41:11.572Z,7.93
2023-03-19T00:44:13.512Z,5.22
2023-03-19T00:47:15.878Z,5.50
2023-03-19T00:50:17.860Z,4.78
2023-03-19T00:53:20.298Z,4.88
2023-03-19T00:56:22.078Z,6.18
2023-03-19T00:59:25.517Z,5.88
2023-03-19T01:02:27.393Z,5.72
2023-03-19T01:05:29.978Z,6.87
2023-03-19T01:08:32.173Z,6.68
2023-03-19T01:11:34.264Z,5.90
2023-03-19T01:14:36.348Z,5.55
2023-03-19T01:17:38.273Z,6.30
2023-03-19T01:20:41.583Z,6.00
2023-03-19T01:23:43.629Z,5.00
2023-03-19T01:26:46.585Z,7.47
2023-03-19T01:29:59.821Z,7.63
2023-03-19T01:33:23.696Z,6.45
2023-03-19T01:39:39.044Z,6.25
2023-03-19T01:42:56.058Z,5.50
2023-03-19T01:46:32.537Z,6.07
2023-03-19T01:50:31.780Z,7.68
2023-03-19T01:53:55.866Z,8.82
2023-03-19T01:57:27.614Z,7.25
2023-03-19T02:00:43.896Z,5.38
2023-03-19T02:03:46.756Z,8.87
2023-03-19T02:06:58.264Z,9.80
2023-03-19T02:10:01.913Z,7.53
2023-03-19T02:13:04.659Z,8.98
2023-03-19T02:16:07.081Z,8.75
2023-03-19T02:19:13.761Z,6.60
2023-03-19T02:22:19.483Z,8.68
2023-03-19T02:25:47.489Z,6.47
2023-03-19T02:28:52.773Z,7.18
2023-03-19T02:32:00.350Z,8.75
2023-03-19T02:35:02.251Z,6.53
2023-03-19T02:38:05.520Z,7.75
2023-03-19T02:41:09.288Z,6.78
2023-03-19T02:44:12.499Z,5.50
2023-03-19T02:50:16.720Z,6.40
2023-03-19T02:53:19.034Z,8.13
2023-03-19T02:56:21.091Z,7.43
2023-03-19T02:59:22.930Z,6.30
2023-03-19T03:02:25.454Z,7.72
2023-03-19T03:05:27.947Z,7.38
2023-03-19T03:08:29.801Z,6.60
2023-03-19T03:11:31.920Z,7.30
2023-03-19T03:14:33.786Z,7.75
2023-03-19T03:17:43.467Z,9.05
2023-03-19T03:20:45.338Z,6.97
2023-03-19T03:23:48.681Z,8.73
2023-03-19T03:29:55.710Z,7.10
2023-03-19T03:32:57.596Z,7.68
2023-03-19T03:35:59.475Z,9.95
2023-03-19T03:39:01.831Z,6.65
2023-03-19T03:42:04.391Z,6.95
2023-03-19T03:45:09.687Z,8.23
2023-03-19T03:48:12.003Z,7.22
2023-03-19T03:51:13.858Z,7.72
2023-03-19T03:54:16.677Z,9.68
2023-03-19T03:57:18.634Z,7.35
2023-03-19T04:00:22.538Z,8.00
2023-03-19T04:03:24.760Z,9.27
2023-03-19T04:06:28.708Z,8.32
2023-03-19T04:09:59.377Z,9.95
2023-03-19T04:13:03.112Z,8.55
2023-03-19T04:16:08.285Z,8.57
2023-03-19T04:19:10.842Z,8.38
2023-03-19T04:22:12.942Z,9.20
2023-03-19T04:25:14.977Z,8.80
2023-03-19T04:28:17.287Z,8.70
2023-03-19T04:31:19.239Z,8.40
2023-03-19T04:34:21.200Z,10.10
2023-03-19T04:37:23.138Z,10.80
2023-03-19T04:40:26.342Z,10.43
2023-03-19T04:43:28.748Z,9.30
2023-03-19T04:46:30.775Z,11.88
2023-03-19T04:49:33.109Z,9.70
2023-03-19T04:52:37.479Z,10.73
2023-03-19T04:55:46.262Z,11.05
2023-03-19T04:58:52.314Z,11.97
2023-03-19T05:01:54.439Z,9.98
2023-03-19T05:04:57.942Z,11.65
2023-03-19T05:08:00.116Z,10.07
2023-03-19T05:11:02.747Z,11.50
2023-03-19T05:14:13.254Z,10.70
2023-03-19T05:17:32.661Z,13.90
2023-03-19T05:20:55.439Z,13.88
2023-03-19T05:23:59.802Z,14.40
2023-03-19T05:27:03.413Z,17.55
2023-03-19T05:30:18.515Z,17.90
2023-03-19T05:33:23.730Z,14.60
2023-03-19T05:36:28.328Z,22.50
2023-03-19T05:39:41.876Z,13.63
2023-03-19T05:42:45.771Z,18.25
2023-03-19T05:45:52.615Z,12.52
2023-03-19T05:48:58.274Z,12.77
2023-03-19T05:52:01.199Z,12.20
2023-03-19T05:55:04.942Z,14.05
2023-03-19T05:58:17.066Z,14.73
2023-03-19T06:01:19.908Z,15.43
2023-03-19T06:04:22.255Z,14.60
2023-03-19T06:07:24.303Z,14.67
2023-03-19T06:10:27.264Z,14.98
2023-03-19T06:13:31.764Z,11.32
2023-03-19T06:16:34.957Z,14.02
2023-03-19T06:19:37.461Z,15.35
2023-03-19T06:22:40.272Z,15.30
2023-03-19T06:25:42.849Z,16.27
2023-03-19T06:28:45.428Z,12.85
2023-03-19T06:31:48.407Z,14.18
2023-03-19T06:34:56.684Z,14.45
2023-03-19T06:38:00.116Z,12.93
2023-03-19T06:41:02.593Z,14.40
2023-03-19T06:44:05.033Z,16.23
2023-03-19T06:47:08.628Z,12.52
2023-03-19T06:50:14.762Z,10.15
2023-03-19T06:53:16.967Z,12.40
2023-03-19T06:56:18.815Z,13.53
2023-03-19T06:59:20.812Z,13.40
2023-03-19T07:02:23.312Z,13.43
2023-03-19T07:05:25.141Z,14.18
2023-03-19T07:08:29.941Z,14.18
2023-03-19T07:11:35.185Z,17.85
2023-03-19T07:14:37.611Z,12.43
2023-03-19T07:17:39.557Z,10.93
2023-03-19T07:20:41.451Z,10.85
2023-03-19T07:23:43.231Z,14.80
2023-03-19T07:26:46.586Z,15.25
2023-03-19T07:29:48.672Z,14.50
2023-03-19T07:32:50.654Z,13.20
2023-03-19T07:35:52.627Z,12.40
2023-03-19T07:38:54.439Z,11.52
2023-03-19T07:41:56.290Z,10.93
2023-03-19T07:44:58.702Z,10.82
2023-03-19T07:48:03.594Z,13.32
2023-03-19T07:51:05.830Z,13.45
2023-03-19T07:54:07.801Z,12.55
2023-03-19T07:57:09.651Z,15.15
2023-03-19T08:00:12.149Z,14.93
2023-03-19T08:03:17.839Z,12.57
2023-03-19T08:06:19.755Z,12.85
2023-03-19T08:09:21.593Z,23.80
2023-03-19T08:12:23.552Z,23.38
2023-03-19T08:15:25.737Z,37.55
2023-03-19T08:18:27.606Z,16.83
2023-03-19T08:21:30.043Z,15.88
2023-03-19T08:24:32.094Z,15.15
2023-03-19T08:27:36.179Z,16.10
2023-03-19T08:30:39.453Z,17.83
2023-03-19T08:33:41.831Z,16.75
2023-03-19T08:36:43.737Z,16.40
2023-03-19T08:39:45.723Z,17.23
2023-03-19T08:42:47.631Z,15.25
2023-03-19T08:45:49.492Z,15.85
2023-03-19T08:48:51.341Z,21.15
2023-03-19T08:51:53.228Z,17.17
2023-03-19T08:54:55.304Z,16.80
2023-03-19T08:57:57.148Z,16.50
2023-03-19T09:01:07.809Z,17.58
2023-03-19T09:04:12.744Z,15.45
2023-03-19T09:07:16.018Z,15.15
2023-03-19T09:10:18.102Z,17.25
2023-03-19T09:13:19.942Z,16.93
2023-03-19T09:16:21.846Z,16.38
2023-03-19T09:19:23.873Z,18.40
2023-03-19T09:22:26.152Z,24.00
2023-03-19T09:25:27.986Z,24.33
2023-03-19T09:28:29.836Z,17.80
2023-03-19T09:31:31.799Z,17.65
2023-03-19T09:34:33.655Z,23.70
2023-03-19T09:37:35.650Z,26.58
2023-03-19T09:40:48.631Z,22.07
2023-03-19T09:44:01.612Z,24.55
2023-03-19T09:47:28.259Z,26.95
2023-03-19T09:50:34.721Z,26.38
2023-03-19T09:53:50.872Z,24.98
2023-03-19T09:56:53.550Z,30.70
2023-03-19T09:59:56.635Z,35.65
2023-03-19T10:03:12.377Z,28.40
2023-03-19T10:06:38.002Z,32.40
2023-03-19T10:09:50.039Z,22.08
2023-03-19T10:13:07.963Z,27.15
2023-03-19T10:16:20.264Z,26.70
2023-03-19T10:19:40.531Z,23.70
2023-03-19T10:22:49.150Z,29.35
2023-03-19T10:25:56.651Z,37.70
2023-03-19T10:29:06.497Z,27.00
2023-03-19T10:32:16.902Z,31.98
2023-03-19T10:35:50.928Z,29.75
2023-03-19T10:38:52.881Z,28.40
2023-03-19T10:42:33.368Z,30.13
2023-03-19T10:45:38.917Z,36.03
2023-03-19T10:48:46.429Z,26.80
2023-03-19T10:51:49.125Z,27.60
2023-03-19T10:55:05.118Z,26.27
2023-03-19T10:58:20.740Z,40.78
2023-03-19T11:01:28.032Z,29.35
2023-03-19T11:04:32.358Z,31.35
2023-03-19T11:07:36.380Z,31.42
2023-03-19T11:10:46.972Z,32.70
2023-03-19T11:13:49.682Z,26.13
2023-03-19T11:16:59.118Z,29.40
2023-03-19T11:20:28.602Z,31.98
2023-03-19T11:23:37.674Z,23.65
2023-03-19T11:26:39.528Z,28.85
2023-03-19T11:29:43.608Z,26.75
2023-03-19T11:32:48.575Z,21.77
2023-03-19T11:35:59.947Z,25.90
2023-03-19T11:39:26.180Z,32.15
2023-03-19T11:42:45.392Z,24.25
2023-03-19T11:45:56.172Z,29.75
2023-03-19T11:49:21.305Z,32.60
2023-03-19T11:52:38.337Z,24.05
2023-03-19T11:55:54.790Z,29.77
2023-03-19T11:59:18.973Z,32.10
2023-03-19T12:03:20.051Z,29.27
2023-03-19T12:07:04.326Z,30.85
2023-03-19T12:10:34.094Z,37.97
2023-03-19T12:13:54.859Z,30.17
2023-03-19T12:17:29.017Z,30.98
2023-03-19T12:20:59.750Z,30.15
2023-03-19T12:24:23.559Z,30.42
2023-03-19T12:27:47.784Z,26.73
2023-03-19T12:31:07.405Z,32.53
2023-03-19T12:34:25.002Z,37.05
2023-03-19T12:37:33.062Z,27.45
2023-03-19T12:40:48.707Z,36.78
2023-03-19T12:44:09.219Z,28.90
2023-03-19T12:47:16.943Z,33.95
2023-03-19T12:50:20.085Z,31.65
2023-03-19T12:53:34.794Z,32.42
2023-03-19T12:57:10.810Z,31.98
2023-03-19T13:00:28.777Z,30.33
2023-03-19T13:03:36.643Z,29.30
2023-03-19T13:06:58.707Z,30.55
2023-03-19T13:10:06.866Z,29.75
2023-03-19T13:13:46.582Z,38.85
2023-03-19T13:16:57.793Z,33.70
2023-03-19T13:20:05.516Z,34.22
2023-03-19T13:23:10.470Z,34.92
2023-03-19T13:26:13.922Z,34.50
2023-03-19T13:29:20.335Z,40.63
2023-03-19T13:32:35.951Z,41.88
2023-03-19T13:35:44.298Z,36.72
2023-03-19T13:38:49.934Z,38.35
2023-03-19T13:42:11.588Z,37.55
2023-03-19T13:45:35.075Z,41.90
2023-03-19T13:48:37.705Z,39.28
2023-03-19T13:51:39.699Z,30.75
2023-03-19T13:54:45.995Z,34.33
2023-03-19T13:58:12.045Z,35.22
2023-03-19T14:01:26.086Z,38.65
2023-03-19T14:04:31.195Z,31.08
2023-03-19T14:07:41.606Z,32.15
2023-03-19T14:10:49.839Z,38.28
2023-03-19T14:13:54.595Z,45.08
2023-03-19T14:16:57.537Z,32.75
2023-03-19T14:20:35.404Z,34.50
2023-03-19T14:23:52.714Z,36.78
2023-03-19T14:26:56.947Z,40.65
2023-03-19T14:30:16.537Z,32.90
2023-03-19T14:33:32.505Z,29.33
2023-03-19T14:36:38.543Z,37.28
2023-03-19T14:39:43.389Z,30.25
2023-03-19T14:42:54.372Z,24.92
2023-03-19T14:46:04.244Z,25.10
2023-03-19T14:49:45.371Z,31.52
2023-03-19T14:52:59.556Z,35.70
2023-03-19T14:56:29.956Z,32.40
2023-03-19T14:59:38.162Z,41.65
2023-03-19T15:02:51.008Z,63.50
2023-03-19T15:05:58.504Z,64.35
2023-03-19T15:09:02.546Z,75.60
2023-03-19T15:12:33.739Z,155.68
2023-03-19T15:16:03.117Z,86.72
2023-03-19T15:19:09.680Z,42.08
2023-03-19T15:22:26.353Z,135.48
2023-03-19T15:25:28.643Z,62.40
2023-03-19T15:28:45.721Z,30.50
2023-03-19T15:32:02.485Z,32.47
2023-03-19T15:35:08.039Z,26.77
2023-03-19T15:38:13.280Z,24.30
2023-03-19T15:41:16.053Z,51.42
2023-03-19T15:44:38.474Z,34.42
2023-03-19T15:48:00.067Z,29.13
2023-03-19T15:51:04.674Z,22.73
2023-03-19T15:54:07.680Z,17.73
2023-03-19T16:00:15.156Z,23.33
2023-03-19T16:03:24.937Z,15.98
2023-03-19T16:06:32.679Z,24.30
2023-03-19T16:09:34.561Z,19.67
2023-03-19T16:12:38.556Z,24.52
2023-03-19T16:15:54.276Z,24.23
2023-03-19T16:18:57.894Z,20.63
2023-03-19T16:22:00.794Z,23.73
2023-03-19T16:25:06.947Z,28.10
2023-03-19T16:28:18.077Z,18.63
2023-03-19T16:31:22.724Z,23.10
2023-03-19T16:34:46.829Z,16.48
2023-03-19T16:37:50.413Z,20.90
2023-03-19T16:41:32.552Z,18.23
2023-03-19T16:44:39.019Z,22.92
2023-03-19T16:48:05.094Z,37.28
2023-03-19T16:51:16.161Z,25.77
2023-03-19T16:54:19.768Z,21.45
2023-03-19T16:57:22.987Z,17.65
2023-03-19T17:00:26.448Z,22.52
2023-03-19T17:03:30.295Z,21.67
2023-03-19T17:06:34.520Z,24.02
2023-03-19T17:09:36.811Z,25.40
2023-03-19T17:12:38.831Z,32.53
2023-03-19T17:15:42.384Z,23.67
2023-03-19T17:18:45.024Z,29.23
2023-03-19T17:21:51.470Z,35.17
2023-03-19T17:24:53.661Z,43.78
2023-03-19T17:27:55.613Z,40.77
2023-03-19T17:30:57.497Z,32.75
2023-03-19T17:34:25.405Z,24.13
2023-03-19T17:37:31.089Z,29.23
2023-03-19T17:40:34.475Z,37.83
2023-03-19T17:43:36.643Z,47.33
2023-03-19T17:46:41.717Z,36.92
2023-03-19T17:49:45.229Z,41.38
2023-03-19T17:52:47.924Z,39.85
2023-03-19T17:55:49.701Z,42.63
2023-03-19T17:58:52.695Z,41.53
2023-03-19T18:04:57.448Z,28.33
2023-03-19T18:07:59.492Z,31.98
2023-03-19T18:11:01.351Z,43.25
2023-03-19T18:14:03.443Z,32.75
2023-03-19T18:17:05.403Z,36.63
2023-03-19T18:20:08.402Z,32.90
2023-03-19T18:26:12.883Z,34.03
2023-03-19T18:29:16.469Z,41.35
2023-03-19T18:32:26.180Z,69.53
2023-03-19T18:35:31.300Z,53.92
2023-03-19T18:38:33.224Z,39.85
2023-03-19T18:41:35.386Z,58.33
2023-03-19T18:44:40.431Z,63.22
2023-03-19T18:47:43.453Z,60.78
2023-03-19T18:53:49.467Z,43.70
2023-03-19T18:56:54.813Z,37.90
2023-03-19T18:59:56.781Z,33.72
2023-03-19T19:03:00.673Z,28.30
2023-03-19T19:06:02.539Z,28.10
2023-03-19T19:09:04.530Z,29.17
2023-03-19T19:12:09.388Z,36.70
2023-03-19T19:15:20.620Z,22.80
2023-03-19T19:18:26.182Z,34.97
2023-03-19T19:21:28.097Z,24.25
2023-03-19T19:24:30.011Z,44.40
2023-03-19T19:27:32.981Z,31.25
2023-03-19T19:30:35.258Z,39.92
2023-03-19T19:33:37.372Z,31.23
2023-03-19T19:36:39.182Z,32.22
2023-03-19T19:39:41.232Z,27.73
2023-03-19T19:42:45.831Z,28.30
2023-03-19T19:45:49.567Z,29.15
2023-03-19T19:48:51.526Z,25.52
2023-03-19T19:51:53.691Z,23.58
2023-03-19T19:54:55.704Z,36.75
2023-03-19T20:01:24.911Z,34.72
2023-03-19T20:04:29.905Z,42.85
2023-03-19T20:07:33.530Z,61.53
2023-03-19T20:10:37.448Z,38.45
2023-03-19T20:13:41.802Z,32.88
2023-03-19T20:16:44.251Z,23.83
2023-03-19T20:19:46.615Z,29.48
2023-03-19T20:22:50.089Z,27.42
2023-03-19T20:25:55.530Z,28.90
2023-03-19T20:28:59.463Z,22.15
2023-03-19T20:32:03.493Z,22.60
2023-03-19T20:35:14.563Z,21.02
2023-03-19T20:38:17.653Z,22.80
2023-03-19T20:41:27.270Z,22.38
2023-03-19T20:44:29.698Z,22.63
2023-03-19T20:47:33.230Z,24.38
2023-03-19T20:50:35.174Z,16.58
2023-03-19T20:53:36.986Z,16.95
2023-03-19T20:56:40.898Z,20.30
2023-03-19T20:59:45.614Z,27.98
2023-03-19T21:02:49.541Z,30.38
2023-03-19T21:05:55.457Z,32.05
2023-03-19T21:08:59.681Z,44.95
2023-03-19T21:12:01.587Z,46.60
2023-03-19T21:15:03.656Z,41.15
2023-03-19T21:18:05.974Z,38.63
2023-03-19T21:21:12.168Z,42.40
2023-03-19T21:24:17.650Z,31.58
2023-03-19T21:27:25.819Z,22.35
2023-03-19T21:30:28.211Z,37.97
2023-03-19T21:33:32.971Z,74.18
2023-03-19T21:36:34.867Z,48.35
2023-03-19T21:39:36.732Z,25.48
2023-03-19T21:42:38.746Z,25.75
2023-03-19T21:45:41.331Z,24.37
2023-03-19T21:48:43.711Z,27.45
2023-03-19T21:51:46.884Z,23.35
2023-03-19T21:54:49.173Z,29.95
2023-03-19T21:57:57.670Z,23.58
2023-03-19T22:01:00.773Z,23.15
2023-03-19T22:04:02.690Z,22.95
2023-03-19T22:07:04.586Z,24.83
2023-03-19T22:10:06.878Z,24.38
2023-03-19T22:13:21.660Z,32.88
2023-03-19T22:16:25.401Z,34.25
2023-03-19T22:19:28.263Z,28.80
2023-03-19T22:22:32.383Z,32.22
2023-03-19T22:25:39.178Z,32.35
2023-03-19T22:28:42.401Z,31.95
2023-03-19T22:31:44.717Z,28.13
2023-03-19T22:34:46.813Z,28.70
2023-03-19T22:37:48.724Z,29.83
2023-03-19T22:40:53.814Z,28.48
2023-03-19T22:43:58.516Z,27.33
2023-03-19T22:47:02.072Z,22.52
2023-03-19T22:50:05.484Z,23.65
2023-03-19T22:53:20.823Z,25.13
2023-03-19T22:56:23.437Z,23.90
2023-03-19T22:59:25.538Z,25.77
2023-03-19T23:02:27.513Z,23.37
2023-03-19T23:05:37.867Z,23.90
2023-03-19T23:08:39.939Z,26.17
2023-03-19T23:11:41.873Z,22.42
2023-03-19T23:14:43.782Z,26.95
2023-03-19T23:17:46.438Z,22.77
2023-03-19T23:20:48.414Z,21.52
2023-03-19T23:23:50.295Z,25.65
2023-03-19T23:26:54.395Z,28.70
2023-03-19T23:29:56.340Z,26.15
2023-03-19T23:33:00.836Z,25.95
2023-03-19T23:36:03.152Z,27.40
2023-03-19T23:39:07.180Z,24.75
2023-03-19T23:42:22.484Z,25.75
2023-03-19T23:45:40.073Z,23.30
2023-03-19T23:48:42.465Z,29.15
2023-03-19T23:51:44.346Z,21.25
2023-03-19T23:54:46.725Z,22.67
2023-03-19T23:57:48.992Z,23.95
